METAR AND TAF INFORMATION
METAR FOR LGAL
ADDS - METARS form results

(0151 UTC 19 August 2019)
Data provider http://aviationweather.gov/metar/data/
 
Forecast for: LGAL (ALEXANDROUPOLIS , GR)
Text: TAF LGAL 182300Z 1900/1909 06008KT 9999 FEW020
Forecast period: 0000 to 0900 UTC 19 August 2019
Forecast type: FROM: standard forecast or significant change
Winds: from the ENE (60 degrees) at 9 MPH (8 knots; 4.1 m/s)
Visibility: 6 or more miles 10+ km)
Ceiling: at least 12,000 feet AGL
Clouds: few clouds at 2000 feet AGL
Weather: no significant weather forecast for this period

 AIRPORT MAP

 RUNWAY INFORMATION
Runway 07 Runway length 8471 ft Runway width 148 ft
Runway elevation 10 ft Runway displaced threshold 0 ft Runway heading 73
Runway 25 Runway length 8471 ft Runway width 148 ft
Runway elevation 24 ft Runway displaced threshold 0 ft Runway heading 253

 AIRPORT FREQUENCIES
Type A/G Name ALEXANDROU Frequency 563.7 MHZ
Type APP Name ALEXANDROU Frequency 123.8 MHZ
Type TWR Name ALEXANDROU Frequency 123.8 MHZ

 AIRPORT NEAR NAVIGATION AIDS
Type NDB Name Alexandroupolis Frequency 351 KHZ
Type VOR-DME Name Alexandroupolis Frequency 113800 KHZ



Powered by Virtual Airlines Manager [v2.6.2]